Sedona, AZ

12:34 AM MST on December 26, 2014 (GMT -0700)
Love | Change Station
CLOSE
Current Station
Airport
Location: Prescott,
Elevation: 5043 ft
Nearby Weather Stations

Elev 5043 ft 34.65 °N, 112.42 °W | Updated 41 minutes ago

Clear
Clear
26 °F
Feels Like 16 °F
N
10
Wind Variable Wind from WNW

Today
High -- | Low -- °F
--% Chance of Precip.
Yesterday
High -- | Low -- °F
Precip. -- in
7:33 AM 5:22 PM
Waxing Crescent, 23% visible
Pressure 29.75 in
Visibility 10.0 miles
Clouds Clear
Windchill 16 °F
Dew Point 7 °F
Humidity 44%
Rainfall 0.00 in
Snow Depth Not available.
UV 0 out of 12
Pollen 1.00 out of 12
Air Quality Not available.
Flu Activity Not available.
METAR KPRC 260653Z AUTO 29009KT 10SM CLR M03/M14 A2979 RMK AO2 SLP075 T10331139 400781033

More Conditions Fewer Conditions

Pressure 29.75 in
Visibility 10.0 miles
Clouds Clear
Windchill 16 °F
Dew Point 7 °F
Humidity 44%
Rainfall 0.00 in
Snow Depth Not available.
UV 0 out of 12
Pollen 1.00 out of 12
Air Quality Not available.
Flu Activity Not available.
METAR KPRC 260653Z AUTO 29009KT 10SM CLR M03/M14 A2979 RMK AO2 SLP075 T10331139 400781033

More Conditions Fewer Conditions

10-Day Weather Forecast

Almanac

Astronomy

Dec. 26, 2014 Rise Set
Actual Time
Civil Twilight
Nautical Twilight
Astronomical Twilight
Moon
Length of Visible Light
Length of Day
Tomorrow will be .
, % of the Moon is Illuminated

Today's Extremes

State Highs State Lows

Community

WunderPhotos

Upload Photos

1,780,571 photos uploaded!

WunderBlogs® & News

Nearby

Air Quality

  Air Quality AQ Index Pollutant
Not available.

Snow Depth

Station Depth Elevation

Earthquake Activity

City Distance Mag. Time & Date
Minimum magnitude displayed is 2.5.

Coastal Water Temperatures

Place Temperature

Nearby Weather Stations